Cliffdell, Washington
Current Conditions -  °F | °C
As of 1:53 AM on Sunday 26 Oct 2014 (Local Time) from KYKM Reporting Station
Clear Clear  
Wind Chill: 11°   Ceiling: Unl
Heat Index: 11°   Visibility: 10mi
Dew Point:   Wind: 7mph
Humidity: 59%   Direction: 270°W
Pressure: 29.81"   Gusts: NA
Location:  46.6628°N, 121.193°W
Report Text: KYKM 260853Z AUTO 27006KT 10SM CLR 11/03 A2981 RMK AO2 PRESRR SLP095 T01060028 53048
Loading
Personal Weather Stations






























Interactive Weather Map
Tropical Storm Tracking
New forecast layout! Learn more

10-Day Weather Forecast

Advertisements
Track Severe Weather on mobile